Terminal Aerodrome Forecast
Issued by NWS Buffalo, NY

Home | Current Version | Previous Version | Text Only | Print | Product List | Glossary On
Versions: 1 2 3 4 5 6 7 8 9 10 11 12 13 14 15 16 17 18 19 20 21 22 23
000
FTUS41 KBUF 242339
TAFROC
TAF
KROC 242339Z 2500/2524 27012G18KT P6SM SKC
     FM250200 23005KT P6SM SKC
     FM251400 25010KT P6SM BKN070
     FM251500 25011G18KT P6SM BKN060
     FM252300 27009KT P6SM BKN060=

USA.gov is the U.S. government's official web portal to all federal, state and local government web resources and services.